Thunder radar more information blitzortung!


Radar de pluja more information rain snow radar


Visita la nostra xarxa de llocs de meteo:

Template documentation
and downloads

And another site



No particular awareness of the weather is required.    There are no Weather-warnings

Pagina Historial Weather Underground text

Diari Resum Marc 14, 2016 Unitats:  Mètric    Imperial   Tant
« Previous Dia
SegĂźent Dia »
Diari Setmana Mensual Anual Personalitzada
  Maxima: Minima: Media:
Temperatura: 13.7 °C 3.6 °C 9.8 °C
Punt de rosada: 4.4 °C -1.0 °C 3.1 °C
Humitat: 79 % 53 % 64 %
Wind Speed: 24.1 km/h 0.0 km/h 6.3 km/h
RĂ fegues de vent: 24.1 km/h - -
Vent:- - ESE
Pression baro: 1021.9 hPa 1019.9 hPa -
Precipitacions: 0.0 mm    
Historical Graphs
 
 
Dades de taula per Marc 14, 2016
Temps Temperatura Punt de rosada Pression baro Vent Wind Speed RĂ fegues de vent Humitat Rainfall Rate (Hourly)
00:00 4.3 °C -0.9 °C 1020.9 hPa WSW 1.6 km/h 3.2 km/h 69 % 0.0 mm
00:10 4.3 °C -0.9 °C 1020.9 hPa WSW 1.6 km/h 3.2 km/h 69 % 0.0 mm
00:20 4.2 °C -1.0 °C 1019.9 hPa WSW 1.6 km/h 3.2 km/h 69 % 0.0 mm
00:30 4.0 °C -1.0 °C 1020.9 hPa SW 1.6 km/h 3.2 km/h 70 % 0.0 mm
00:50 3.7 °C -0.9 °C 1020.9 hPa South 1.6 km/h 3.2 km/h 72 % 0.0 mm
01:05 3.6 °C -0.8 °C 1020.9 hPa SE 1.6 km/h 3.2 km/h 73 % 0.0 mm
01:15 3.7 °C -0.7 °C 1019.9 hPa Calm     73 % 0.0 mm
01:25 3.7 °C -0.7 °C 1019.9 hPa Calm     73 % 0.0 mm
01:35 3.7 °C -0.7 °C 1019.9 hPa WNW 3.2 km/h 3.2 km/h 73 % 0.0 mm
01:45 3.8 °C -0.8 °C 1019.9 hPa South 1.6 km/h 1.6 km/h 72 % 0.0 mm
02:05 4.0 °C -0.8 °C 1019.9 hPa SW 3.2 km/h 4.8 km/h 71 % 0.0 mm
02:15 4.2 °C -0.2 °C 1020.9 hPa SW 3.2 km/h 4.8 km/h 73 % 0.0 mm
02:25 4.6 °C 0.3 °C 1020.9 hPa SW 3.2 km/h 4.8 km/h 74 % 0.0 mm
02:35 5.1 °C 0.8 °C 1021.9 hPa SW 1.6 km/h 3.2 km/h 74 % 0.0 mm
02:45 6.1 °C 1.6 °C 1021.9 hPa East 1.6 km/h 3.2 km/h 73 % 0.0 mm
02:55 6.7 °C 1.8 °C 1021.9 hPa NE 1.6 km/h 4.8 km/h 71 % 0.0 mm
03:15 7.4 °C 1.9 °C 1020.9 hPa NNE 1.6 km/h 4.8 km/h 68 % 0.0 mm
03:25 8.1 °C 2.3 °C 1020.9 hPa NNE 4.8 km/h 9.7 km/h 67 % 0.0 mm
03:35 8.6 °C 2.6 °C 1020.9 hPa NE 1.6 km/h 3.2 km/h 66 % 0.0 mm
03:45 9.4 °C 3.2 °C 1021.9 hPa NE 4.8 km/h 4.8 km/h 65 % 0.0 mm
03:55 9.9 °C 3.4 °C 1021.9 hPa NE 1.6 km/h 3.2 km/h 64 % 0.0 mm
04:05 10.4 °C 3.7 °C 1021.9 hPa NNE 3.2 km/h 6.4 km/h 63 % 0.0 mm
04:25 10.5 °C 3.1 °C 1021.9 hPa NE 3.2 km/h 6.4 km/h 60 % 0.0 mm
04:45 10.9 °C 3.2 °C 1020.9 hPa NE 4.8 km/h 6.4 km/h 59 % 0.0 mm
05:15 12.4 °C 4.3 °C 1021.9 hPa East 12.9 km/h 12.9 km/h 58 % 0.0 mm
05:25 12.2 °C 3.9 °C 1021.9 hPa East 8.0 km/h 11.3 km/h 57 % 0.0 mm
05:35 12.2 °C 3.9 °C 1021.9 hPa ESE 9.7 km/h 12.9 km/h 57 % 0.0 mm
05:45 12.2 °C 3.7 °C 1021.9 hPa ESE 11.3 km/h 11.3 km/h 56 % 0.0 mm
05:55 12.2 °C 3.7 °C 1021.9 hPa East 4.8 km/h 11.3 km/h 56 % 0.0 mm
06:05 12.2 °C 3.7 °C 1021.9 hPa East 9.7 km/h 16.1 km/h 56 % 0.0 mm
06:15 12.4 °C 3.8 °C 1021.9 hPa East 9.7 km/h 17.7 km/h 56 % 0.0 mm
06:25 12.3 °C 3.8 °C 1021.9 hPa East 12.9 km/h 12.9 km/h 56 % 0.0 mm
06:35 12.3 °C 3.8 °C 1021.9 hPa East 11.3 km/h 16.1 km/h 56 % 0.0 mm
06:40 12.4 °C 3.6 °C 1021.9 hPa East 14.5 km/h 16.1 km/h 55 % 0.0 mm
12:46 12.5 °C 3.9 °C 1021.9 hPa ESE 14.8 km/h 14.8 km/h 56 % 0.0 mm
12:51 12.6 °C 4.1 °C 1021.9 hPa ENE 11.4 km/h 11.4 km/h 56 % 0.0 mm
12:56 12.8 °C 4.0 °C 1021.9 hPa ENE 16.7 km/h 16.7 km/h 55 % 0.0 mm
13:01 12.7 °C 3.9 °C 1021.9 hPa ESE 18.5 km/h 18.5 km/h 55 % 0.0 mm
13:06 12.7 °C 3.9 °C 1021.9 hPa SE 16.7 km/h 16.7 km/h 55 % 0.0 mm
13:11 13.1 °C 4.3 °C 1021.9 hPa ESE 10.3 km/h 10.3 km/h 55 % 0.0 mm
13:16 13.2 °C 4.1 °C 1021.9 hPa WNW 16.7 km/h 16.7 km/h 54 % 0.0 mm
13:21 13.2 °C 4.1 °C 1021.9 hPa East 14.8 km/h 14.8 km/h 54 % 0.0 mm
13:26 13.4 °C 4.3 °C 1020.9 hPa ESE 22.2 km/h 22.2 km/h 54 % 0.0 mm
13:31 13.7 °C 4.3 °C 1020.9 hPa ENE 14.8 km/h 14.8 km/h 53 % 0.0 mm
13:36 13.5 °C 4.1 °C 1020.9 hPa ESE 24.1 km/h 24.1 km/h 53 % 0.0 mm
13:41 13.5 °C 4.1 °C 1021.9 hPa ESE 16.7 km/h 16.7 km/h 53 % 0.0 mm
13:46 13.6 °C 4.2 °C 1021.9 hPa East 14.8 km/h 14.8 km/h 53 % 0.0 mm
13:51 13.3 °C 3.9 °C 1021.9 hPa South 24.1 km/h 24.1 km/h 53 % 0.0 mm
14:01 13.0 °C 3.6 °C 1021.9 hPa East 11.1 km/h 11.1 km/h 53 % 0.0 mm
14:06 13.1 °C 3.7 °C 1021.9 hPa ESE 13.0 km/h 13.0 km/h 53 % 0.0 mm
14:11 13.2 °C 3.8 °C 1021.9 hPa East 9.3 km/h 9.3 km/h 53 % 0.0 mm
14:16 13.3 °C 3.9 °C 1021.9 hPa ESE 13.7 km/h 13.7 km/h 53 % 0.0 mm
14:21 13.2 °C 3.8 °C 1021.9 hPa ESE 13.0 km/h 13.0 km/h 53 % 0.0 mm
14:26 13.3 °C 3.9 °C 1021.9 hPa ENE 13.0 km/h 13.0 km/h 53 % 0.0 mm
14:31 13.1 °C 3.7 °C 1021.9 hPa East 18.5 km/h 18.5 km/h 53 % 0.0 mm
14:36 13.0 °C 3.6 °C 1021.9 hPa East 18.5 km/h 18.5 km/h 53 % 0.0 mm
14:41 13.1 °C 3.7 °C 1021.9 hPa ESE 13.0 km/h 13.0 km/h 53 % 0.0 mm
14:51 12.8 °C 3.4 °C 1021.9 hPa East 16.1 km/h 16.1 km/h 53 % 0.0 mm
14:56 13.0 °C 3.6 °C 1020.9 hPa ENE 16.7 km/h 16.7 km/h 53 % 0.0 mm
15:01 13.0 °C 3.6 °C 1020.9 hPa ESE 16.7 km/h 16.7 km/h 53 % 0.0 mm
15:06 13.0 °C 3.6 °C 1020.9 hPa East 16.7 km/h 16.7 km/h 53 % 0.0 mm
15:11 13.0 °C 3.6 °C 1020.9 hPa ESE 15.6 km/h 15.6 km/h 53 % 0.0 mm
15:16 12.9 °C 3.6 °C 1020.9 hPa ESE 16.7 km/h 16.7 km/h 53 % 0.0 mm
15:21 12.9 °C 3.6 °C 1020.9 hPa East 14.8 km/h 14.8 km/h 53 % 0.0 mm
15:26 12.8 °C 3.4 °C 1019.9 hPa ENE 18.5 km/h 18.5 km/h 53 % 0.0 mm
15:31 12.7 °C 3.3 °C 1019.9 hPa ESE 13.0 km/h 13.0 km/h 53 % 0.0 mm
15:36 12.6 °C 3.3 °C 1019.9 hPa East 14.8 km/h 14.8 km/h 53 % 0.0 mm
15:41 12.7 °C 3.6 °C 1020.9 hPa East 16.7 km/h 16.7 km/h 54 % 0.0 mm
15:46 12.7 °C 3.6 °C 1020.9 hPa SW 9.3 km/h 9.3 km/h 54 % 0.0 mm
15:51 12.7 °C 3.6 °C 1020.9 hPa East 13.0 km/h 13.0 km/h 54 % 0.0 mm
15:56 12.8 °C 4.0 °C 1020.9 hPa SSW 7.4 km/h 7.4 km/h 55 % 0.0 mm
16:01 12.7 °C 3.9 °C 1020.9 hPa South 13.0 km/h 13.0 km/h 55 % 0.0 mm
16:11 12.7 °C 3.9 °C 1020.9 hPa ESE 9.3 km/h 9.3 km/h 55 % 0.0 mm
16:16 12.6 °C 3.8 °C 1020.9 hPa ESE 13.0 km/h 13.0 km/h 55 % 0.0 mm
16:26 12.4 °C 4.1 °C 1021.9 hPa ESE 16.7 km/h 16.7 km/h 57 % 0.0 mm
16:31 12.1 °C 4.1 °C 1021.9 hPa ESE 16.7 km/h 16.7 km/h 58 % 0.0 mm
16:36 12.1 °C 4.1 °C 1021.9 hPa SSE 11.4 km/h 11.4 km/h 58 % 0.0 mm
16:41 11.9 °C 4.1 °C 1020.9 hPa East 11.4 km/h 11.4 km/h 59 % 0.0 mm
16:46 11.9 °C 4.1 °C 1020.9 hPa SSE 13.0 km/h 13.0 km/h 59 % 0.0 mm
16:51 12.0 °C 4.4 °C 1020.9 hPa SSE 8.7 km/h 8.7 km/h 60 % 0.0 mm
16:56 11.9 °C 4.4 °C 1020.9 hPa ESE 9.3 km/h 9.3 km/h 60 % 0.0 mm
17:01 11.6 °C 4.1 °C 1020.9 hPa ESE 13.0 km/h 13.0 km/h 60 % 0.0 mm
17:06 11.4 °C 4.2 °C 1020.9 hPa SSE 13.0 km/h 13.0 km/h 61 % 0.0 mm
17:11 11.4 °C 4.2 °C 1019.9 hPa East 11.1 km/h 11.1 km/h 61 % 0.0 mm
17:16 11.5 °C 4.2 °C 1019.9 hPa ESE 16.7 km/h 16.7 km/h 61 % 0.0 mm
17:21 11.5 °C 4.2 °C 1019.9 hPa East 7.4 km/h 7.4 km/h 61 % 0.0 mm
17:26 11.6 °C 4.3 °C 1020.9 hPa NE 9.3 km/h 9.3 km/h 61 % 0.0 mm
17:31 11.5 °C 4.2 °C 1020.9 hPa East 9.3 km/h 9.3 km/h 61 % 0.0 mm
17:36 11.4 °C 3.9 °C 1020.9 hPa ENE 7.4 km/h 7.4 km/h 60 % 0.0 mm
17:41 11.4 °C 3.9 °C 1020.9 hPa ESE 7.9 km/h 7.9 km/h 60 % 0.0 mm
17:46 11.3 °C 3.8 °C 1020.9 hPa NE 9.3 km/h 9.3 km/h 60 % 0.0 mm
17:51 11.3 °C 4.1 °C 1020.9 hPa East 5.8 km/h 5.8 km/h 61 % 0.0 mm
17:55 7.9 °C 2.8 °C 1021.9 hPa NE 1.6 km/h 3.2 km/h 70 % 0.0 mm
17:56 11.2 °C 3.9 °C 1020.9 hPa ESE 7.4 km/h 7.4 km/h 61 % 0.0 mm
18:01 11.2 °C 3.9 °C 1020.9 hPa ENE 7.4 km/h 7.4 km/h 61 % 0.0 mm
18:05 7.7 °C 2.6 °C 1021.9 hPa Calm   1.6 km/h 70 % 0.0 mm
18:06 11.2 °C 3.9 °C 1020.9 hPa ENE 5.6 km/h 5.6 km/h 61 % 0.0 mm
18:11 11.1 °C 3.8 °C 1020.9 hPa East 9.3 km/h 9.3 km/h 61 % 0.0 mm
18:15 7.4 °C 2.3 °C 1020.9 hPa Calm   3.2 km/h 70 % 0.0 mm
18:16 11.1 °C 3.8 °C 1020.9 hPa East 5.6 km/h 5.6 km/h 61 % 0.0 mm
18:21 11.0 °C 3.8 °C 1020.9 hPa ENE 5.6 km/h 5.6 km/h 61 % 0.0 mm
18:25 7.2 °C 2.1 °C 1020.9 hPa Calm   1.6 km/h 70 % 0.0 mm
18:26 11.0 °C 3.8 °C 1020.9 hPa ENE 5.6 km/h 5.6 km/h 61 % 0.0 mm
18:31 11.0 °C 4.0 °C 1020.9 hPa NNE 3.9 km/h 3.9 km/h 62 % 0.0 mm
18:35 7.3 °C 2.6 °C 1021.9 hPa Calm   3.2 km/h 72 % 0.0 mm
18:36 11.0 °C 4.0 °C 1020.9 hPa ESE 5.6 km/h 5.6 km/h 62 % 0.0 mm
18:41 11.0 °C 4.0 °C 1020.9 hPa ENE 3.7 km/h 3.7 km/h 62 % 0.0 mm
18:45 7.3 °C 2.8 °C 1021.9 hPa Calm     73 % 0.0 mm
18:46 10.9 °C 3.9 °C 1020.9 hPa ENE 5.8 km/h 5.8 km/h 62 % 0.0 mm
18:51 10.9 °C 3.9 °C 1020.9 hPa ENE 3.7 km/h 3.7 km/h 62 % 0.0 mm
18:55 7.3 °C 2.8 °C 1021.9 hPa NW 1.6 km/h 1.6 km/h 73 % 0.0 mm
18:56 10.9 °C 3.9 °C 1020.9 hPa East 3.7 km/h 3.7 km/h 62 % 0.0 mm
19:01 10.9 °C 3.9 °C 1020.9 hPa ENE 5.6 km/h 5.6 km/h 62 % 0.0 mm
19:05 7.4 °C 2.9 °C 1021.9 hPa NNE 1.6 km/h 3.2 km/h 73 % 0.0 mm
19:06 10.9 °C 3.9 °C 1020.9 hPa ESE 3.7 km/h 3.7 km/h 62 % 0.0 mm
19:11 10.8 °C 3.8 °C 1021.9 hPa East 3.7 km/h 3.7 km/h 62 % 0.0 mm
19:15 7.2 °C 2.5 °C 1021.9 hPa Calm   1.6 km/h 72 % 0.0 mm
19:16 10.8 °C 3.8 °C 1021.9 hPa ENE 2.3 km/h 2.3 km/h 62 % 0.0 mm
19:21 10.8 °C 3.8 °C 1021.9 hPa ENE 1.9 km/h   62 % 0.0 mm
19:25 7.2 °C 2.7 °C 1021.9 hPa Calm   3.2 km/h 73 % 0.0 mm
19:26 10.8 °C 3.8 °C 1021.9 hPa NNE 3.7 km/h 3.7 km/h 62 % 0.0 mm
19:31 10.7 °C 3.7 °C 1021.9 hPa ENE 1.9 km/h 2.3 km/h 62 % 0.0 mm
19:36 10.7 °C 3.7 °C 1021.9 hPa NE 3.7 km/h 3.7 km/h 62 % 0.0 mm
19:41 10.6 °C 3.6 °C 1020.9 hPa ENE 3.9 km/h 3.9 km/h 62 % 0.0 mm
19:45 7.0 °C 2.3 °C 1021.9 hPa NNE 1.6 km/h 1.6 km/h 72 % 0.0 mm
19:46 10.6 °C 3.6 °C 1020.9 hPa NE 3.7 km/h 3.7 km/h 62 % 0.0 mm
19:51 10.6 °C 3.6 °C 1020.9 hPa NNE 3.7 km/h 3.7 km/h 62 % 0.0 mm
19:55 7.0 °C 2.5 °C 1021.9 hPa Calm   1.6 km/h 73 % 0.0 mm
19:56 10.6 °C 3.6 °C 1020.9 hPa NE 3.7 km/h 3.7 km/h 62 % 0.0 mm
20:01 10.5 °C 3.7 °C 1020.9 hPa East 3.5 km/h   63 % 0.0 mm
20:05 6.9 °C 2.6 °C 1021.9 hPa Calm     74 % 0.0 mm
20:06 10.5 °C 3.7 °C 1020.9 hPa NNE 3.7 km/h 3.7 km/h 63 % 0.0 mm
20:11 10.5 °C 3.7 °C 1021.9 hPa NE 1.9 km/h 2.3 km/h 63 % 0.0 mm
20:15 6.9 °C 2.4 °C 1021.9 hPa SW 3.2 km/h 3.2 km/h 73 % 0.0 mm
20:16 10.4 °C 3.7 °C 1021.9 hPa NNE 3.9 km/h 3.9 km/h 63 % 0.0 mm
20:21 10.4 °C 3.7 °C 1021.9 hPa NNE 5.6 km/h 5.6 km/h 63 % 0.0 mm
20:25 7.0 °C 2.7 °C 1021.9 hPa Calm   3.2 km/h 74 % 0.0 mm
20:26 10.4 °C 3.9 °C 1021.9 hPa NNE 5.6 km/h 5.8 km/h 64 % 0.0 mm
20:31 10.4 °C 3.9 °C 1021.9 hPa NE 5.6 km/h 5.6 km/h 64 % 0.0 mm
20:35 7.0 °C 2.9 °C 1020.9 hPa Calm   1.6 km/h 75 % 0.0 mm
20:36 10.3 °C 3.8 °C 1021.9 hPa NE 5.8 km/h 5.8 km/h 64 % 0.0 mm
20:41 10.2 °C 3.7 °C 1021.9 hPa NNE 5.8 km/h 5.8 km/h 64 % 0.0 mm
20:45 7.0 °C 2.7 °C 1020.9 hPa SW 1.6 km/h 1.6 km/h 74 % 0.0 mm
20:46 10.2 °C 3.7 °C 1021.9 hPa ENE 3.7 km/h 3.9 km/h 64 % 0.0 mm
20:51 10.1 °C 3.6 °C 1021.9 hPa ENE 1.9 km/h   64 % 0.0 mm
20:55 6.9 °C 2.8 °C 1020.9 hPa Calm   3.2 km/h 75 % 0.0 mm
20:56 9.9 °C 3.4 °C 1021.9 hPa Calm     64 % 0.0 mm
21:01 9.8 °C 3.3 °C 1021.9 hPa Calm     64 % 0.0 mm
21:05 6.9 °C 2.8 °C 1021.9 hPa Calm     75 % 0.0 mm
21:06 9.7 °C 3.4 °C 1021.9 hPa NW 1.9 km/h 1.9 km/h 65 % 0.0 mm
21:11 9.6 °C 3.3 °C 1021.9 hPa NNE 1.9 km/h 1.9 km/h 65 % 0.0 mm
21:15 6.9 °C 2.8 °C 1021.9 hPa NE 4.8 km/h 4.8 km/h 75 % 0.0 mm
21:16 9.6 °C 3.3 °C 1021.9 hPa Calm     65 % 0.0 mm
21:21 9.5 °C 3.2 °C 1021.9 hPa NNE 1.9 km/h 1.9 km/h 65 % 0.0 mm
21:25 6.9 °C 2.9 °C 1021.9 hPa Calm   6.4 km/h 76 % 0.0 mm
21:26 9.5 °C 3.4 °C 1021.9 hPa NNE 1.9 km/h 1.9 km/h 66 % 0.0 mm
21:31 9.4 °C 3.4 °C 1021.9 hPa NE 3.7 km/h 3.7 km/h 66 % 0.0 mm
21:35 6.9 °C 2.8 °C 1021.9 hPa Calm   3.2 km/h 75 % 0.0 mm
21:36 9.4 °C 3.4 °C 1021.9 hPa NNE 3.9 km/h 3.9 km/h 66 % 0.0 mm
21:41 9.3 °C 3.3 °C 1021.9 hPa NNE 2.3 km/h 2.3 km/h 66 % 0.0 mm
21:45 6.8 °C 2.7 °C 1020.9 hPa West 1.6 km/h 3.2 km/h 75 % 0.0 mm
21:46 9.2 °C 3.2 °C 1021.9 hPa North 3.9 km/h 3.9 km/h 66 % 0.0 mm
21:51 9.1 °C 3.1 °C 1021.9 hPa NW 3.7 km/h 3.7 km/h 66 % 0.0 mm
21:55 6.5 °C 2.2 °C 1020.9 hPa WSW 3.2 km/h 4.8 km/h 74 % 0.0 mm
21:56 9.0 °C 3.0 °C 1021.9 hPa ENE 3.7 km/h 3.7 km/h 66 % 0.0 mm
22:01 9.0 °C 3.0 °C 1021.9 hPa NNE 1.9 km/h   66 % 0.0 mm
22:05 6.3 °C 2.2 °C 1020.9 hPa SW 3.2 km/h 4.8 km/h 75 % 0.0 mm
22:06 8.9 °C 2.9 °C 1021.9 hPa NNW 1.9 km/h 1.9 km/h 66 % 0.0 mm
22:11 8.8 °C 2.8 °C 1021.9 hPa East 1.9 km/h   66 % 0.0 mm
22:15 6.2 °C 2.4 °C 1020.9 hPa SW 3.2 km/h 4.8 km/h 77 % 0.0 mm
22:16 8.8 °C 2.8 °C 1021.9 hPa NW 1.9 km/h 1.9 km/h 66 % 0.0 mm
22:21 8.7 °C 2.9 °C 1021.9 hPa ENE 1.9 km/h   67 % 0.0 mm
22:25 6.3 °C 2.6 °C 1020.9 hPa SW 1.6 km/h 3.2 km/h 77 % 0.0 mm
22:26 8.7 °C 2.9 °C 1021.9 hPa NE 1.9 km/h 1.9 km/h 67 % 0.0 mm
22:31 8.6 °C 2.8 °C 1021.9 hPa NE 1.9 km/h 1.9 km/h 67 % 0.0 mm
22:35 6.4 °C 2.8 °C 1021.9 hPa Calm   1.6 km/h 78 % 0.0 mm
22:36 8.6 °C 2.8 °C 1021.9 hPa NNE 3.7 km/h 3.7 km/h 67 % 0.0 mm
22:41 8.6 °C 2.8 °C 1021.9 hPa ENE 3.7 km/h 3.7 km/h 67 % 0.0 mm
22:45 6.4 °C 3.0 °C 1020.9 hPa Calm     79 % 0.0 mm
22:46 8.6 °C 3.0 °C 1021.9 hPa NNE 5.6 km/h 5.6 km/h 68 % 0.0 mm
22:51 8.6 °C 3.0 °C 1021.9 hPa ENE 5.6 km/h 5.6 km/h 68 % 0.0 mm
22:55 6.4 °C 3.0 °C 1020.9 hPa Calm     79 % 0.0 mm
22:56 8.5 °C 2.9 °C 1021.9 hPa NE 5.6 km/h 5.6 km/h 68 % 0.0 mm
23:01 8.5 °C 2.9 °C 1021.9 hPa NNE 3.7 km/h 3.7 km/h 68 % 0.0 mm
23:05 6.5 °C 3.1 °C 1020.9 hPa North 1.6 km/h 3.2 km/h 79 % 0.0 mm
23:06 8.4 °C 2.8 °C 1021.9 hPa NE 3.7 km/h 3.7 km/h 68 % 0.0 mm
23:11 8.3 °C 2.7 °C 1021.9 hPa NE 3.7 km/h 3.7 km/h 68 % 0.0 mm
23:15 6.5 °C 3.1 °C 1020.9 hPa Calm   3.2 km/h 79 % 0.0 mm
23:16 8.2 °C 2.8 °C 1021.9 hPa ENE 1.9 km/h 2.3 km/h 69 % 0.0 mm
23:21 8.2 °C 2.8 °C 1021.9 hPa NNE 2.6 km/h 2.6 km/h 69 % 0.0 mm
23:25 6.4 °C 2.8 °C 1020.9 hPa NE 1.6 km/h 1.6 km/h 78 % 0.0 mm
23:26 8.1 °C 2.8 °C 1021.9 hPa ENE 1.9 km/h   69 % 0.0 mm
23:31 8.1 °C 2.8 °C 1021.9 hPa NE 2.6 km/h   69 % 0.0 mm
23:35 6.4 °C 2.8 °C 1020.9 hPa Calm   1.6 km/h 78 % 0.0 mm
23:36 8.0 °C 2.7 °C 1021.9 hPa ENE 5.6 km/h 5.6 km/h 69 % 0.0 mm
23:41 8.0 °C 2.8 °C 1021.9 hPa NNE 5.6 km/h 5.6 km/h 70 % 0.0 mm
23:45 6.2 °C 2.7 °C 1019.9 hPa Calm   1.6 km/h 78 % 0.0 mm
23:55 6.0 °C 2.4 °C 1019.9 hPa West 1.6 km/h 1.6 km/h 78 % 0.0 mm
Meteo Sesrovires
Elogis d' Weather Underground - 3.5 mb

Guio original per  Jim McMurry - jmcmurry@mwt.net Adaptat per a la plantilla per  Wim van der Kuil - Leuven-Template.eu

Trobareu la nostra informacio del temps tambe a:

Weather Underground

AWEKAS